createdAt,value
2023-04-16T05:37:24.875Z,13.75
2023-04-16T05:39:55.963Z,14.50
2023-04-16T05:45:41.985Z,19.00
2023-04-16T05:51:34.374Z,16.00
2023-04-16T05:54:15.698Z,19.33
2023-04-16T06:00:32.123Z,23.67
2023-04-16T06:02:59.029Z,19.67
2023-04-16T06:05:27.546Z,22.00
2023-04-16T06:07:56.381Z,13.00
2023-04-16T06:10:28.539Z,18.75
2023-04-16T06:12:59.378Z,23.67
2023-04-16T06:15:30.354Z,16.75
2023-04-16T06:18:07.795Z,20.67
2023-04-16T06:20:58.054Z,18.00
2023-04-16T14:12:22.184Z,6.00
2023-04-16T14:14:48.672Z,6.00
2023-04-16T14:17:15.510Z,7.00
2023-04-16T14:19:42.120Z,7.75
2023-04-16T14:22:09.541Z,6.00
2023-04-16T14:24:36.322Z,8.75
2023-04-16T14:27:03.000Z,9.00
2023-04-16T14:29:30.414Z,8.00
2023-04-16T14:31:57.209Z,6.75
2023-04-16T14:34:24.034Z,6.75
2023-04-16T14:36:51.943Z,7.00
2023-04-16T14:39:18.527Z,7.25
2023-04-16T14:41:44.912Z,6.00
2023-04-16T14:44:11.334Z,7.75
2023-04-16T14:46:38.605Z,6.25
2023-04-16T14:49:04.995Z,6.00
2023-04-16T14:51:31.790Z,8.00
2023-04-16T14:53:58.398Z,6.00
2023-04-16T14:56:24.740Z,6.50
2023-04-16T14:58:51.157Z,5.50
2023-04-16T15:01:17.665Z,5.00
2023-04-16T15:03:44.477Z,7.50
2023-04-16T15:06:11.588Z,9.75
2023-04-16T15:08:38.207Z,7.00
2023-04-16T15:11:04.784Z,6.50
2023-04-16T15:13:34.097Z,8.75
2023-04-16T15:16:07.298Z,7.25
2023-04-16T15:18:33.747Z,8.75
2023-04-16T15:21:00.068Z,6.25
2023-04-16T15:23:26.669Z,9.00
2023-04-16T15:25:53.057Z,9.00
2023-04-16T15:28:19.553Z,7.50
2023-04-16T15:30:45.949Z,9.00
2023-04-16T15:33:12.770Z,3.00
2023-04-16T15:35:41.334Z,5.50
2023-04-16T15:38:08.224Z,7.75
2023-04-16T15:40:35.623Z,9.75
2023-04-16T15:43:01.968Z,8.50
2023-04-16T15:45:28.616Z,8.00
2023-04-16T15:47:55.700Z,14.50
2023-04-16T15:50:22.141Z,11.25
2023-04-16T15:52:48.764Z,12.00
2023-04-16T15:55:16.567Z,14.00
2023-04-16T15:57:43.020Z,14.50
2023-04-16T16:00:18.910Z,13.50
2023-04-16T16:02:46.473Z,11.00
2023-04-16T16:05:13.805Z,11.25
2023-04-16T16:07:40.823Z,9.00
2023-04-16T16:10:07.979Z,7.75
2023-04-16T16:12:34.406Z,9.75
2023-04-16T16:15:02.262Z,8.00
2023-04-16T16:17:29.478Z,6.00
2023-04-16T16:19:57.588Z,8.75
2023-04-16T16:22:24.525Z,7.50
2023-04-16T16:24:51.448Z,7.33
2023-04-16T16:27:18.241Z,6.25
2023-04-16T16:29:44.654Z,8.00
2023-04-16T16:32:11.431Z,9.00
2023-04-16T16:34:37.988Z,9.25
2023-04-16T16:37:05.015Z,6.25
2023-04-16T16:39:31.882Z,7.00
2023-04-16T16:41:58.429Z,8.00
2023-04-16T16:44:24.878Z,8.25
2023-04-16T16:46:51.711Z,6.00
2023-04-16T16:49:18.337Z,8.50
2023-04-16T16:51:45.057Z,8.00
2023-04-16T16:54:11.476Z,8.25
2023-04-16T16:56:37.857Z,9.75
2023-04-16T16:59:04.772Z,8.75
2023-04-16T17:01:31.797Z,9.00
2023-04-16T17:03:58.328Z,9.00
2023-04-16T17:06:24.924Z,9.00
2023-04-16T17:08:51.424Z,8.75
2023-04-16T17:11:17.984Z,9.00
2023-04-16T17:13:44.482Z,10.00
2023-04-16T17:16:11.462Z,10.25
2023-04-16T17:18:37.900Z,10.75
2023-04-16T17:21:04.360Z,10.50
2023-04-16T17:23:30.936Z,10.00
2023-04-16T17:25:58.730Z,11.50
2023-04-16T17:28:26.033Z,13.00
2023-04-16T17:30:53.220Z,9.75
2023-04-16T17:33:20.050Z,9.75
2023-04-16T17:35:46.551Z,11.00
2023-04-16T17:38:12.959Z,13.75
2023-04-16T17:40:39.332Z,13.25
2023-04-16T17:43:05.878Z,14.00
2023-04-16T17:45:33.280Z,18.25
2023-04-16T17:47:59.798Z,26.33
2023-04-16T17:50:29.519Z,38.50
2023-04-16T17:52:56.018Z,36.00
2023-04-16T17:55:22.408Z,35.25
2023-04-16T17:57:48.812Z,35.25
2023-04-16T18:00:16.199Z,26.00
2023-04-16T18:02:42.793Z,15.00
2023-04-16T18:05:09.537Z,21.75
2023-04-16T18:07:36.532Z,21.75
2023-04-16T18:10:03.210Z,15.75
2023-04-16T18:12:29.633Z,17.00
2023-04-16T18:14:56.011Z,17.25
2023-04-16T18:17:22.846Z,18.75
2023-04-16T18:19:49.476Z,18.75
2023-04-16T18:22:15.868Z,20.00
2023-04-16T18:24:42.226Z,23.67
2023-04-16T18:27:08.681Z,20.50
2023-04-16T18:29:35.081Z,29.00
2023-04-16T18:32:04.175Z,13.00
2023-04-16T18:34:31.809Z,9.75
2023-04-16T18:36:58.425Z,15.50
2023-04-16T18:39:24.916Z,20.75
2023-04-16T18:41:51.329Z,22.25
2023-04-16T18:44:19.683Z,24.00
2023-04-16T18:46:46.710Z,15.00
2023-04-16T18:49:13.566Z,13.00
2023-04-16T18:51:41.897Z,14.50
2023-04-16T18:54:08.352Z,13.50
2023-04-16T18:56:34.811Z,15.00
2023-04-16T18:59:01.283Z,17.25
2023-04-16T19:01:27.868Z,15.50
2023-04-16T19:03:54.269Z,15.25
2023-04-16T19:06:20.649Z,16.75
2023-04-16T19:08:47.114Z,17.75
2023-04-16T19:11:13.612Z,20.75
2023-04-16T19:13:40.082Z,16.25
2023-04-16T19:16:11.276Z,18.50
2023-04-16T19:18:38.536Z,15.50
2023-04-16T19:21:05.695Z,20.50
2023-04-16T19:23:36.331Z,23.00
2023-04-16T19:26:04.978Z,21.75
2023-04-16T19:28:35.963Z,18.75
2023-04-16T19:47:22.585Z,32.50
2023-04-16T19:56:01.241Z,29.00
2023-04-16T19:58:28.060Z,23.00
2023-04-16T20:00:55.200Z,25.00
2023-04-16T20:03:22.063Z,25.00
2023-04-16T20:05:54.181Z,24.00
2023-04-16T20:08:20.559Z,23.33
2023-04-16T20:10:47.184Z,23.33
2023-04-16T20:13:18.688Z,20.00
2023-04-16T20:15:45.293Z,24.00
2023-04-16T20:23:50.044Z,24.00
2023-04-16T20:29:16.932Z,22.33
